Preston, United Kingdom
Current Conditions -  °F | °C
As of 3:50 PM on Saturday 22 Nov 2014 (Local Time) from EGOW Reporting Station
Few Clouds Few Clouds  
Wind Chill: 12°   Ceiling: Unl
Heat Index: 12°   Visibility: 6mi
Dew Point:   Wind: 5mph
Humidity: 82%   Direction: 210°SSW
Pressure: 29.85"   Gusts: NA
Location:  53.76°N, 2.71°W
Report Text: EGOW 221550Z 21004KT 9999 FEW030 12/09 Q1011 BLU
Loading
Personal Weather Stations






























Interactive Weather Map New forecast layout! Learn more

10-Day Weather Forecast

Advertisements
Track Severe Weather on mobile